sensor_id;sensor_type;location;lat;lon;timestamp;P1;durP1;ratioP1;P2;durP2;ratioP2
74042;SDS011;62384;53.600;10.040;2022-08-18T07:47:44;37.35;;;16.30;;
74042;SDS011;62384;53.600;10.040;2022-08-18T07:50:12;41.22;;;18.95;;
74042;SDS011;62384;53.600;10.040;2022-08-18T07:52:48;41.17;;;19.60;;
74042;SDS011;62384;53.600;10.040;2022-08-18T07:55:26;37.17;;;19.17;;
74042;SDS011;62384;53.600;10.040;2022-08-18T08:04:24;44.80;;;20.60;;
74042;SDS011;62384;53.600;10.040;2022-08-18T08:07:26;42.08;;;18.35;;
74042;SDS011;62384;53.600;10.040;2022-08-18T08:12:53;37.83;;;18.73;;
74042;SDS011;62384;53.600;10.040;2022-08-18T08:31:33;48.25;;;19.88;;
74042;SDS011;62384;53.600;10.040;2022-08-18T08:37:04;46.47;;;19.15;;
74042;SDS011;62384;53.600;10.040;2022-08-18T08:39:38;41.38;;;16.88;;
74042;SDS011;62384;53.600;10.040;2022-08-18T08:42:19;38.30;;;19.58;;
74042;SDS011;62384;53.600;10.040;2022-08-18T08:44:57;38.28;;;17.50;;
74042;SDS011;62384;53.600;10.040;2022-08-18T08:50:13;34.00;;;16.63;;
74042;SDS011;62384;53.600;10.040;2022-08-18T08:52:50;35.65;;;16.23;;
74042;SDS011;62384;53.600;10.040;2022-08-18T08:55:23;32.67;;;15.40;;
74042;SDS011;62384;53.600;10.040;2022-08-18T09:00:35;33.35;;;15.73;;
74042;SDS011;62384;53.600;10.040;2022-08-18T09:05:50;32.63;;;14.95;;
74042;SDS011;62384;53.600;10.040;2022-08-18T09:08:50;34.58;;;15.63;;
74042;SDS011;62384;53.600;10.040;2022-08-18T09:11:40;31.52;;;15.75;;
74042;SDS011;62384;53.600;10.040;2022-08-18T09:17:19;29.65;;;14.18;;
74042;SDS011;62384;53.600;10.040;2022-08-18T09:19:55;32.17;;;15.25;;
74042;SDS011;62384;53.600;10.040;2022-08-18T09:22:43;30.98;;;15.02;;
74042;SDS011;62384;53.600;10.040;2022-08-18T09:28:05;29.95;;;12.27;;
74042;SDS011;62384;53.600;10.040;2022-08-18T09:30:47;31.02;;;13.50;;
74042;SDS011;62384;53.600;10.040;2022-08-18T09:38:55;28.13;;;15.93;;
74042;SDS011;62384;53.600;10.040;2022-08-18T09:41:47;30.05;;;14.88;;
74042;SDS011;62384;53.600;10.040;2022-08-18T09:45:04;29.08;;;15.77;;
74042;SDS011;62384;53.600;10.040;2022-08-18T09:47:05;35.17;;;16.63;;
74042;SDS011;62384;53.600;10.040;2022-08-18T09:50:34;36.42;;;16.85;;
74042;SDS011;62384;53.600;10.040;2022-08-18T09:57:25;36.40;;;18.00;;
74042;SDS011;62384;53.600;10.040;2022-08-18T10:07:48;35.25;;;18.02;;
74042;SDS011;62384;53.600;10.040;2022-08-18T10:10:38;33.08;;;17.52;;
74042;SDS011;62384;53.600;10.040;2022-08-18T10:18:35;40.88;;;20.30;;
74042;SDS011;62384;53.600;10.040;2022-08-18T10:21:11;33.42;;;18.70;;
74042;SDS011;62384;53.600;10.040;2022-08-18T10:28:58;26.67;;;14.95;;
74042;SDS011;62384;53.600;10.040;2022-08-18T10:31:24;32.70;;;16.83;;
74042;SDS011;62384;53.600;10.040;2022-08-18T10:33:58;29.60;;;16.13;;
74042;SDS011;62384;53.600;10.040;2022-08-18T10:36:34;29.35;;;16.35;;
74042;SDS011;62384;53.600;10.040;2022-08-18T10:39:05;27.33;;;16.35;;
74042;SDS011;62384;53.600;10.040;2022-08-18T10:41:34;26.98;;;16.58;;
74042;SDS011;62384;53.600;10.040;2022-08-18T10:44:02;26.67;;;15.23;;
74042;SDS011;62384;53.600;10.040;2022-08-18T10:46:34;29.67;;;16.73;;
74042;SDS011;62384;53.600;10.040;2022-08-18T10:49:15;32.13;;;17.05;;
74042;SDS011;62384;53.600;10.040;2022-08-18T10:54:40;29.08;;;16.20;;
74042;SDS011;62384;53.600;10.040;2022-08-18T10:59:48;28.30;;;16.10;;
74042;SDS011;62384;53.600;10.040;2022-08-18T11:04:54;26.92;;;15.65;;
74042;SDS011;62384;53.600;10.040;2022-08-18T11:07:20;24.23;;;16.08;;
74042;SDS011;62384;53.600;10.040;2022-08-18T11:09:49;25.88;;;14.88;;
74042;SDS011;62384;53.600;10.040;2022-08-18T11:12:41;24.98;;;14.38;;
74042;SDS011;62384;53.600;10.040;2022-08-18T11:15:25;24.23;;;13.75;;
74042;SDS011;62384;53.600;10.040;2022-08-18T11:19:03;23.52;;;13.02;;
74042;SDS011;62384;53.600;10.040;2022-08-18T11:26:49;22.90;;;13.45;;
74042;SDS011;62384;53.600;10.040;2022-08-18T11:29:24;19.55;;;12.25;;
74042;SDS011;62384;53.600;10.040;2022-08-18T11:31:52;19.38;;;12.18;;
74042;SDS011;62384;53.600;10.040;2022-08-18T11:34:25;18.45;;;12.23;;
74042;SDS011;62384;53.600;10.040;2022-08-18T11:36:57;18.25;;;10.55;;
74042;SDS011;62384;53.600;10.040;2022-08-18T11:39:25;17.15;;;11.25;;
74042;SDS011;62384;53.600;10.040;2022-08-18T11:41:52;19.27;;;11.57;;
74042;SDS011;62384;53.600;10.040;2022-08-18T11:44:19;18.15;;;11.07;;
74042;SDS011;62384;53.600;10.040;2022-08-18T11:46:48;18.52;;;12.48;;
74042;SDS011;62384;53.600;10.040;2022-08-18T11:49:25;21.00;;;10.93;;
74042;SDS011;62384;53.600;10.040;2022-08-18T11:52:17;16.80;;;10.45;;
74042;SDS011;62384;53.600;10.040;2022-08-18T11:54:48;20.27;;;11.35;;
74042;SDS011;62384;53.600;10.040;2022-08-18T12:03:01;22.20;;;12.63;;
74042;SDS011;62384;53.600;10.040;2022-08-18T12:05:41;15.25;;;8.82;;
74042;SDS011;62384;53.600;10.040;2022-08-18T12:08:52;14.32;;;8.40;;
74042;SDS011;62384;53.600;10.040;2022-08-18T12:11:03;15.35;;;8.85;;
74042;SDS011;62384;53.600;10.040;2022-08-18T12:13:42;14.48;;;9.70;;
74042;SDS011;62384;53.600;10.040;2022-08-18T12:16:11;15.68;;;8.27;;
74042;SDS011;62384;53.600;10.040;2022-08-18T12:18:40;11.60;;;8.70;;
74042;SDS011;62384;53.600;10.040;2022-08-18T12:21:05;12.77;;;8.30;;
74042;SDS011;62384;53.600;10.040;2022-08-18T12:23:33;15.20;;;9.23;;
74042;SDS011;62384;53.600;10.040;2022-08-18T12:26:00;12.45;;;8.65;;
74042;SDS011;62384;53.600;10.040;2022-08-18T12:28:26;10.32;;;7.68;;
74042;SDS011;62384;53.600;10.040;2022-08-18T12:30:51;14.00;;;8.15;;
74042;SDS011;62384;53.600;10.040;2022-08-18T12:33:17;16.40;;;8.55;;
74042;SDS011;62384;53.600;10.040;2022-08-18T12:35:44;11.57;;;7.32;;
74042;SDS011;62384;53.600;10.040;2022-08-18T12:38:11;16.42;;;7.93;;
74042;SDS011;62384;53.600;10.040;2022-08-18T12:40:38;10.32;;;7.10;;
74042;SDS011;62384;53.600;10.040;2022-08-18T12:43:04;13.23;;;7.70;;
74042;SDS011;62384;53.600;10.040;2022-08-18T12:45:29;9.43;;;7.20;;
74042;SDS011;62384;53.600;10.040;2022-08-18T12:47:55;11.73;;;7.25;;
74042;SDS011;62384;53.600;10.040;2022-08-18T12:50:21;12.75;;;7.65;;
74042;SDS011;62384;53.600;10.040;2022-08-18T12:52:47;11.07;;;7.20;;
74042;SDS011;62384;53.600;10.040;2022-08-18T12:55:13;10.70;;;6.88;;
74042;SDS011;62384;53.600;10.040;2022-08-18T12:57:39;12.10;;;6.88;;
74042;SDS011;62384;53.600;10.040;2022-08-18T13:00:04;10.07;;;6.47;;
74042;SDS011;62384;53.600;10.040;2022-08-18T13:02:32;9.35;;;7.03;;
74042;SDS011;62384;53.600;10.040;2022-08-18T13:04:58;11.30;;;7.05;;
74042;SDS011;62384;53.600;10.040;2022-08-18T13:07:23;11.68;;;7.65;;
74042;SDS011;62384;53.600;10.040;2022-08-18T13:09:48;10.52;;;7.38;;
74042;SDS011;62384;53.600;10.040;2022-08-18T13:12:14;16.30;;;7.15;;
74042;SDS011;62384;53.600;10.040;2022-08-18T13:14:40;10.65;;;7.90;;
74042;SDS011;62384;53.600;10.040;2022-08-18T13:17:05;10.98;;;7.38;;
74042;SDS011;62384;53.600;10.040;2022-08-18T13:19:32;10.05;;;7.57;;
74042;SDS011;62384;53.600;10.040;2022-08-18T13:21:57;12.15;;;7.90;;
74042;SDS011;62384;53.600;10.040;2022-08-18T13:24:23;9.80;;;7.05;;
74042;SDS011;62384;53.600;10.040;2022-08-18T13:26:48;9.70;;;7.47;;
74042;SDS011;62384;53.600;10.040;2022-08-18T13:29:14;11.05;;;7.78;;
74042;SDS011;62384;53.600;10.040;2022-08-18T13:31:41;11.35;;;7.28;;
74042;SDS011;62384;53.600;10.040;2022-08-18T13:34:07;9.98;;;7.50;;
74042;SDS011;62384;53.600;10.040;2022-08-18T13:36:33;10.93;;;7.75;;
74042;SDS011;62384;53.600;10.040;2022-08-18T13:39:11;9.73;;;7.97;;
74042;SDS011;62384;53.600;10.040;2022-08-18T13:41:38;10.07;;;7.40;;
74042;SDS011;62384;53.600;10.040;2022-08-18T13:44:06;9.18;;;7.70;;
74042;SDS011;62384;53.600;10.040;2022-08-18T13:46:32;11.43;;;7.68;;
74042;SDS011;62384;53.600;10.040;2022-08-18T13:48:57;12.50;;;7.70;;
74042;SDS011;62384;53.600;10.040;2022-08-18T13:51:26;10.25;;;7.90;;
74042;SDS011;62384;53.600;10.040;2022-08-18T13:53:52;13.25;;;9.05;;
74042;SDS011;62384;53.600;10.040;2022-08-18T13:56:17;13.05;;;8.45;;
74042;SDS011;62384;53.600;10.040;2022-08-18T13:58:43;13.95;;;8.38;;
74042;SDS011;62384;53.600;10.040;2022-08-18T14:01:09;14.77;;;8.30;;
74042;SDS011;62384;53.600;10.040;2022-08-18T14:03:36;9.48;;;7.57;;
74042;SDS011;62384;53.600;10.040;2022-08-18T14:06:04;11.35;;;7.75;;
74042;SDS011;62384;53.600;10.040;2022-08-18T14:08:29;12.02;;;7.82;;
74042;SDS011;62384;53.600;10.040;2022-08-18T14:10:57;14.13;;;7.85;;
74042;SDS011;62384;53.600;10.040;2022-08-18T14:13:25;12.20;;;8.10;;
74042;SDS011;62384;53.600;10.040;2022-08-18T14:15:51;11.38;;;7.97;;
74042;SDS011;62384;53.600;10.040;2022-08-18T14:18:18;13.73;;;7.80;;
74042;SDS011;62384;53.600;10.040;2022-08-18T14:20:43;11.00;;;7.63;;
74042;SDS011;62384;53.600;10.040;2022-08-18T14:23:27;9.52;;;7.18;;
74042;SDS011;62384;53.600;10.040;2022-08-18T14:26:11;11.45;;;7.65;;
74042;SDS011;62384;53.600;10.040;2022-08-18T14:28:55;10.70;;;7.32;;
74042;SDS011;62384;53.600;10.040;2022-08-18T14:34:46;10.02;;;6.82;;
74042;SDS011;62384;53.600;10.040;2022-08-18T14:37:11;13.82;;;7.80;;
74042;SDS011;62384;53.600;10.040;2022-08-18T14:39:37;9.68;;;7.45;;
74042;SDS011;62384;53.600;10.040;2022-08-18T14:42:02;12.65;;;9.05;;
74042;SDS011;62384;53.600;10.040;2022-08-18T14:44:28;13.48;;;8.45;;
74042;SDS011;62384;53.600;10.040;2022-08-18T14:46:53;16.02;;;10.30;;
74042;SDS011;62384;53.600;10.040;2022-08-18T14:49:22;15.75;;;10.13;;
74042;SDS011;62384;53.600;10.040;2022-08-18T14:51:48;16.77;;;9.90;;
74042;SDS011;62384;53.600;10.040;2022-08-18T14:54:13;12.75;;;9.85;;
74042;SDS011;62384;53.600;10.040;2022-08-18T14:56:38;15.95;;;9.25;;
74042;SDS011;62384;53.600;10.040;2022-08-18T14:59:04;12.88;;;9.48;;
74042;SDS011;62384;53.600;10.040;2022-08-18T15:01:31;11.85;;;8.65;;
74042;SDS011;62384;53.600;10.040;2022-08-18T15:03:58;13.52;;;9.20;;
74042;SDS011;62384;53.600;10.040;2022-08-18T15:06:23;12.73;;;9.45;;
74042;SDS011;62384;53.600;10.040;2022-08-18T15:08:49;11.93;;;8.70;;
74042;SDS011;62384;53.600;10.040;2022-08-18T15:11:15;12.27;;;9.25;;
74042;SDS011;62384;53.600;10.040;2022-08-18T15:13:42;15.65;;;9.70;;
74042;SDS011;62384;53.600;10.040;2022-08-18T15:16:10;15.25;;;10.65;;
74042;SDS011;62384;53.600;10.040;2022-08-18T15:18:37;13.68;;;9.93;;
74042;SDS011;62384;53.600;10.040;2022-08-18T15:21:03;13.82;;;9.43;;
74042;SDS011;62384;53.600;10.040;2022-08-18T15:23:55;17.75;;;10.52;;
74042;SDS011;62384;53.600;10.040;2022-08-18T15:26:39;16.45;;;9.68;;
74042;SDS011;62384;53.600;10.040;2022-08-18T15:29:06;14.15;;;9.38;;
74042;SDS011;62384;53.600;10.040;2022-08-18T15:31:33;12.82;;;8.25;;
74042;SDS011;62384;53.600;10.040;2022-08-18T15:33:59;12.15;;;8.70;;
74042;SDS011;62384;53.600;10.040;2022-08-18T15:36:24;14.23;;;8.77;;
74042;SDS011;62384;53.600;10.040;2022-08-18T15:38:50;13.80;;;8.65;;
74042;SDS011;62384;53.600;10.040;2022-08-18T15:41:27;11.25;;;8.52;;
74042;SDS011;62384;53.600;10.040;2022-08-18T15:43:53;14.85;;;9.30;;
74042;SDS011;62384;53.600;10.040;2022-08-18T15:46:19;14.50;;;8.88;;
74042;SDS011;62384;53.600;10.040;2022-08-18T15:48:44;11.63;;;7.85;;
74042;SDS011;62384;53.600;10.040;2022-08-18T15:54:50;10.57;;;7.55;;
74042;SDS011;62384;53.600;10.040;2022-08-18T15:57:15;13.57;;;8.13;;
74042;SDS011;62384;53.600;10.040;2022-08-18T15:59:40;11.50;;;8.63;;
74042;SDS011;62384;53.600;10.040;2022-08-18T16:02:09;9.90;;;7.07;;
74042;SDS011;62384;53.600;10.040;2022-08-18T16:04:35;13.90;;;8.10;;
74042;SDS011;62384;53.600;10.040;2022-08-18T16:07:02;12.10;;;8.43;;
74042;SDS011;62384;53.600;10.040;2022-08-18T16:12:49;10.75;;;7.05;;
74042;SDS011;62384;53.600;10.040;2022-08-18T16:15:16;10.85;;;7.10;;
74042;SDS011;62384;53.600;10.040;2022-08-18T16:17:43;9.45;;;6.90;;
74042;SDS011;62384;53.600;10.040;2022-08-18T16:20:12;7.82;;;6.15;;
74042;SDS011;62384;53.600;10.040;2022-08-18T16:22:41;12.00;;;5.88;;
74042;SDS011;62384;53.600;10.040;2022-08-18T16:25:07;8.93;;;5.90;;
74042;SDS011;62384;53.600;10.040;2022-08-18T16:27:34;11.00;;;5.78;;
74042;SDS011;62384;53.600;10.040;2022-08-18T16:30:01;9.38;;;6.07;;
74042;SDS011;62384;53.600;10.040;2022-08-18T16:32:30;9.25;;;6.07;;
74042;SDS011;62384;53.600;10.040;2022-08-18T16:34:56;8.27;;;5.57;;
74042;SDS011;62384;53.600;10.040;2022-08-18T16:37:22;9.98;;;6.15;;
74042;SDS011;62384;53.600;10.040;2022-08-18T16:39:48;11.20;;;6.07;;
74042;SDS011;62384;53.600;10.040;2022-08-18T16:42:13;12.43;;;5.65;;
74042;SDS011;62384;53.600;10.040;2022-08-18T16:44:39;10.00;;;5.20;;
74042;SDS011;62384;53.600;10.040;2022-08-18T16:47:05;7.65;;;4.35;;
74042;SDS011;62384;53.600;10.040;2022-08-18T16:49:31;12.68;;;4.90;;
74042;SDS011;62384;53.600;10.040;2022-08-18T16:51:58;11.43;;;4.60;;
74042;SDS011;62384;53.600;10.040;2022-08-18T16:54:26;11.32;;;4.82;;
74042;SDS011;62384;53.600;10.040;2022-08-18T16:56:52;7.65;;;4.38;;
74042;SDS011;62384;53.600;10.040;2022-08-18T16:59:18;6.63;;;4.53;;
74042;SDS011;62384;53.600;10.040;2022-08-18T17:02:02;10.57;;;4.93;;
74042;SDS011;62384;53.600;10.040;2022-08-18T17:04:46;9.10;;;4.82;;
74042;SDS011;62384;53.600;10.040;2022-08-18T17:07:12;9.80;;;4.85;;
74042;SDS011;62384;53.600;10.040;2022-08-18T17:09:37;13.73;;;6.82;;
74042;SDS011;62384;53.600;10.040;2022-08-18T17:12:03;7.82;;;4.30;;
74042;SDS011;62384;53.600;10.040;2022-08-18T17:14:32;10.65;;;4.93;;
74042;SDS011;62384;53.600;10.040;2022-08-18T17:16:57;9.40;;;4.45;;
74042;SDS011;62384;53.600;10.040;2022-08-18T17:19:25;7.43;;;4.20;;
74042;SDS011;62384;53.600;10.040;2022-08-18T17:21:53;12.23;;;4.93;;
74042;SDS011;62384;53.600;10.040;2022-08-18T17:24:19;10.63;;;5.88;;
74042;SDS011;62384;53.600;10.040;2022-08-18T17:26:48;9.45;;;5.43;;
74042;SDS011;62384;53.600;10.040;2022-08-18T17:29:18;10.35;;;5.57;;
74042;SDS011;62384;53.600;10.040;2022-08-18T17:31:48;8.30;;;4.68;;
74042;SDS011;62384;53.600;10.040;2022-08-18T17:36:52;11.23;;;5.57;;
74042;SDS011;62384;53.600;10.040;2022-08-18T17:39:23;9.65;;;4.97;;
74042;SDS011;62384;53.600;10.040;2022-08-18T17:41:52;9.30;;;5.03;;
74042;SDS011;62384;53.600;10.040;2022-08-18T17:44:47;11.27;;;4.90;;
74042;SDS011;62384;53.600;10.040;2022-08-18T17:47:15;11.45;;;6.15;;
74042;SDS011;62384;53.600;10.040;2022-08-18T17:49:44;9.75;;;5.22;;
74042;SDS011;62384;53.600;10.040;2022-08-18T17:52:30;10.65;;;5.80;;
74042;SDS011;62384;53.600;10.040;2022-08-18T17:55:04;11.55;;;5.38;;
74042;SDS011;62384;53.600;10.040;2022-08-18T17:57:34;10.98;;;5.55;;
74042;SDS011;62384;53.600;10.040;2022-08-18T18:00:05;13.57;;;5.15;;
74042;SDS011;62384;53.600;10.040;2022-08-18T18:02:35;10.18;;;5.32;;
74042;SDS011;62384;53.600;10.040;2022-08-18T18:05:03;7.95;;;4.80;;
74042;SDS011;62384;53.600;10.040;2022-08-18T18:07:31;11.07;;;5.85;;
74042;SDS011;62384;53.600;10.040;2022-08-18T18:10:04;7.22;;;4.53;;
74042;SDS011;62384;53.600;10.040;2022-08-18T18:12:33;10.77;;;5.22;;
74042;SDS011;62384;53.600;10.040;2022-08-18T18:15:00;11.05;;;5.53;;
74042;SDS011;62384;53.600;10.040;2022-08-18T18:17:31;9.40;;;5.25;;
74042;SDS011;62384;53.600;10.040;2022-08-18T18:23:18;12.10;;;4.95;;
74042;SDS011;62384;53.600;10.040;2022-08-18T18:25:46;10.45;;;4.97;;
74042;SDS011;62384;53.600;10.040;2022-08-18T18:28:34;9.40;;;4.90;;
74042;SDS011;62384;53.600;10.040;2022-08-18T18:31:15;10.20;;;4.72;;
74042;SDS011;62384;53.600;10.040;2022-08-18T18:33:55;7.55;;;4.60;;
74042;SDS011;62384;53.600;10.040;2022-08-18T18:36:35;9.93;;;5.20;;
74042;SDS011;62384;53.600;10.040;2022-08-18T18:39:06;8.23;;;4.38;;
74042;SDS011;62384;53.600;10.040;2022-08-18T18:45:04;8.98;;;4.65;;
74042;SDS011;62384;53.600;10.040;2022-08-18T18:52:50;7.53;;;4.80;;
74042;SDS011;62384;53.600;10.040;2022-08-18T18:55:22;9.95;;;4.50;;
74042;SDS011;62384;53.600;10.040;2022-08-18T19:08:56;6.35;;;3.65;;
74042;SDS011;62384;53.600;10.040;2022-08-18T19:11:40;11.18;;;4.32;;
74042;SDS011;62384;53.600;10.040;2022-08-18T19:14:20;8.07;;;3.97;;
74042;SDS011;62384;53.600;10.040;2022-08-18T19:17:01;7.05;;;4.20;;
74042;SDS011;62384;53.600;10.040;2022-08-18T19:25:06;6.75;;;3.85;;
74042;SDS011;62384;53.600;10.040;2022-08-18T19:27:42;6.88;;;3.83;;
74042;SDS011;62384;53.600;10.040;2022-08-18T19:30:13;6.78;;;3.50;;
74042;SDS011;62384;53.600;10.040;2022-08-18T19:32:42;7.10;;;3.85;;
74042;SDS011;62384;53.600;10.040;2022-08-18T19:35:14;8.85;;;4.70;;
74042;SDS011;62384;53.600;10.040;2022-08-18T19:40:26;14.43;;;6.80;;
74042;SDS011;62384;53.600;10.040;2022-08-18T19:43:05;10.27;;;4.25;;
74042;SDS011;62384;53.600;10.040;2022-08-18T19:45:35;10.65;;;4.53;;
74042;SDS011;62384;53.600;10.040;2022-08-18T19:48:30;7.30;;;3.85;;
74042;SDS011;62384;53.600;10.040;2022-08-18T20:08:04;9.20;;;4.65;;
74042;SDS011;62384;53.600;10.040;2022-08-18T20:10:37;9.95;;;5.05;;
74042;SDS011;62384;53.600;10.040;2022-08-18T20:13:27;8.07;;;4.32;;
74042;SDS011;62384;53.600;10.040;2022-08-18T20:18:36;7.32;;;4.00;;
74042;SDS011;62384;53.600;10.040;2022-08-18T20:29:07;12.25;;;4.97;;
74042;SDS011;62384;53.600;10.040;2022-08-18T20:34:23;14.20;;;5.03;;
74042;SDS011;62384;53.600;10.040;2022-08-18T20:36:50;8.77;;;3.92;;
74042;SDS011;62384;53.600;10.040;2022-08-18T20:39:40;9.45;;;3.90;;
74042;SDS011;62384;53.600;10.040;2022-08-18T20:52:46;9.63;;;4.35;;
74042;SDS011;62384;53.600;10.040;2022-08-18T20:58:09;10.40;;;4.85;;
74042;SDS011;62384;53.600;10.040;2022-08-18T21:00:40;7.97;;;4.15;;
74042;SDS011;62384;53.600;10.040;2022-08-18T21:03:11;7.82;;;4.63;;
74042;SDS011;62384;53.600;10.040;2022-08-18T21:05:39;7.63;;;4.25;;
74042;SDS011;62384;53.600;10.040;2022-08-18T21:08:09;8.18;;;4.30;;
74042;SDS011;62384;53.600;10.040;2022-08-18T21:16:06;8.70;;;4.78;;
74042;SDS011;62384;53.600;10.040;2022-08-18T21:18:33;13.32;;;4.47;;
74042;SDS011;62384;53.600;10.040;2022-08-18T21:20:59;7.57;;;3.90;;
74042;SDS011;62384;53.600;10.040;2022-08-18T21:23:31;11.98;;;4.75;;
74042;SDS011;62384;53.600;10.040;2022-08-18T21:26:03;9.40;;;4.05;;
74042;SDS011;62384;53.600;10.040;2022-08-18T21:28:35;7.13;;;4.28;;
74042;SDS011;62384;53.600;10.040;2022-08-18T21:31:21;11.18;;;5.47;;
74042;SDS011;62384;53.600;10.040;2022-08-18T21:34:04;9.02;;;5.25;;
74042;SDS011;62384;53.600;10.040;2022-08-18T21:39:13;10.13;;;4.68;;
74042;SDS011;62384;53.600;10.040;2022-08-18T21:41:42;17.27;;;5.55;;
74042;SDS011;62384;53.600;10.040;2022-08-18T21:44:13;8.73;;;5.53;;
74042;SDS011;62384;53.600;10.040;2022-08-18T21:46:44;10.35;;;5.10;;
74042;SDS011;62384;53.600;10.040;2022-08-18T21:49:10;10.88;;;5.78;;
74042;SDS011;62384;53.600;10.040;2022-08-18T21:51:44;10.23;;;5.15;;
74042;SDS011;62384;53.600;10.040;2022-08-18T21:54:15;12.88;;;4.65;;
74042;SDS011;62384;53.600;10.040;2022-08-18T21:57:15;12.15;;;4.90;;
74042;SDS011;62384;53.600;10.040;2022-08-18T22:02:35;9.65;;;4.60;;
74042;SDS011;62384;53.600;10.040;2022-08-18T22:05:00;14.77;;;5.75;;
74042;SDS011;62384;53.600;10.040;2022-08-18T22:07:25;9.05;;;5.35;;
74042;SDS011;62384;53.600;10.040;2022-08-18T22:10:00;11.63;;;5.28;;
74042;SDS011;62384;53.600;10.040;2022-08-18T22:12:54;12.40;;;5.25;;
74042;SDS011;62384;53.600;10.040;2022-08-18T22:15:43;9.30;;;4.85;;
74042;SDS011;62384;53.600;10.040;2022-08-18T22:23:18;14.10;;;5.95;;
74042;SDS011;62384;53.600;10.040;2022-08-18T22:26:10;11.27;;;6.07;;
74042;SDS011;62384;53.600;10.040;2022-08-18T22:31:16;12.13;;;5.60;;
74042;SDS011;62384;53.600;10.040;2022-08-18T22:33:42;14.68;;;6.03;;
74042;SDS011;62384;53.600;10.040;2022-08-18T22:36:09;12.07;;;5.80;;
74042;SDS011;62384;53.600;10.040;2022-08-18T22:38:37;12.73;;;5.53;;
74042;SDS011;62384;53.600;10.040;2022-08-18T22:41:02;10.80;;;5.65;;
74042;SDS011;62384;53.600;10.040;2022-08-18T22:43:27;12.38;;;6.47;;
74042;SDS011;62384;53.600;10.040;2022-08-18T22:45:52;14.93;;;6.20;;
74042;SDS011;62384;53.600;10.040;2022-08-18T22:48:18;16.75;;;7.00;;
74042;SDS011;62384;53.600;10.040;2022-08-18T22:50:43;12.10;;;5.97;;
74042;SDS011;62384;53.600;10.040;2022-08-18T22:53:10;11.93;;;5.93;;
74042;SDS011;62384;53.600;10.040;2022-08-18T22:55:37;11.73;;;5.72;;
74042;SDS011;62384;53.600;10.040;2022-08-18T22:58:02;11.45;;;6.07;;
74042;SDS011;62384;53.600;10.040;2022-08-18T23:00:28;13.48;;;7.45;;
74042;SDS011;62384;53.600;10.040;2022-08-18T23:02:53;16.75;;;6.65;;
74042;SDS011;62384;53.600;10.040;2022-08-18T23:05:19;14.88;;;6.35;;
74042;SDS011;62384;53.600;10.040;2022-08-18T23:07:45;15.52;;;6.93;;
74042;SDS011;62384;53.600;10.040;2022-08-18T23:10:11;12.18;;;7.22;;
74042;SDS011;62384;53.600;10.040;2022-08-18T23:12:37;13.70;;;7.25;;
74042;SDS011;62384;53.600;10.040;2022-08-18T23:15:03;12.00;;;7.22;;
74042;SDS011;62384;53.600;10.040;2022-08-18T23:17:35;13.77;;;6.72;;
74042;SDS011;62384;53.600;10.040;2022-08-18T23:20:02;14.57;;;6.57;;
74042;SDS011;62384;53.600;10.040;2022-08-18T23:22:28;15.25;;;7.47;;
74042;SDS011;62384;53.600;10.040;2022-08-18T23:24:54;12.68;;;7.03;;
74042;SDS011;62384;53.600;10.040;2022-08-18T23:27:19;12.75;;;7.07;;
74042;SDS011;62384;53.600;10.040;2022-08-18T23:29:45;23.20;;;8.25;;
74042;SDS011;62384;53.600;10.040;2022-08-18T23:32:12;18.42;;;8.88;;
74042;SDS011;62384;53.600;10.040;2022-08-18T23:34:38;12.40;;;7.72;;
74042;SDS011;62384;53.600;10.040;2022-08-18T23:37:03;14.98;;;7.53;;
74042;SDS011;62384;53.600;10.040;2022-08-18T23:39:29;18.50;;;7.40;;
74042;SDS011;62384;53.600;10.040;2022-08-18T23:42:00;14.30;;;6.78;;
74042;SDS011;62384;53.600;10.040;2022-08-18T23:44:27;15.25;;;7.00;;
74042;SDS011;62384;53.600;10.040;2022-08-18T23:46:52;16.23;;;7.45;;
74042;SDS011;62384;53.600;10.040;2022-08-18T23:49:18;12.85;;;7.20;;
74042;SDS011;62384;53.600;10.040;2022-08-18T23:51:45;14.57;;;6.47;;
74042;SDS011;62384;53.600;10.040;2022-08-18T23:54:20;13.25;;;7.45;;
74042;SDS011;62384;53.600;10.040;2022-08-18T23:56:47;13.00;;;7.05;;
74042;SDS011;62384;53.600;10.040;2022-08-18T23:59:13;19.83;;;8.05;;
